createdAt,value
2023-05-10T00:00:15.140Z,19.85
2023-05-10T00:00:46.724Z,19.85
2023-05-10T00:01:18.147Z,19.86
2023-05-10T00:01:49.582Z,19.85
2023-05-10T00:02:21.063Z,19.85
2023-05-10T00:02:52.630Z,19.85
2023-05-10T00:03:24.267Z,19.85
2023-05-10T00:03:55.782Z,19.84
2023-05-10T00:04:27.259Z,19.84
2023-05-10T00:04:58.672Z,19.83
2023-05-10T00:05:30.073Z,19.83
2023-05-10T00:06:01.501Z,19.83
2023-05-10T00:06:32.910Z,19.82
2023-05-10T00:07:04.329Z,19.83
2023-05-10T00:07:35.800Z,19.82
2023-05-10T00:08:07.220Z,19.83
2023-05-10T00:08:38.651Z,19.82
2023-05-10T00:09:10.112Z,19.80
2023-05-10T00:09:41.531Z,19.81
2023-05-10T00:10:12.932Z,19.82
2023-05-10T00:10:44.369Z,19.82
2023-05-10T00:11:15.802Z,19.81
2023-05-10T00:11:47.214Z,19.81
2023-05-10T00:12:18.620Z,19.81
2023-05-10T00:12:50.075Z,19.81
2023-05-10T00:13:21.580Z,19.79
2023-05-10T00:13:53.025Z,19.80
2023-05-10T00:14:24.438Z,19.79
2023-05-10T00:14:55.847Z,19.81
2023-05-10T00:15:27.251Z,19.79
2023-05-10T00:15:58.715Z,19.79
2023-05-10T00:16:30.170Z,19.78
2023-05-10T00:17:01.645Z,19.78
2023-05-10T00:17:33.110Z,19.78
2023-05-10T00:18:04.570Z,19.77
2023-05-10T00:18:36.017Z,19.77
2023-05-10T00:19:07.438Z,19.77
2023-05-10T00:19:38.833Z,19.77
2023-05-10T00:20:10.261Z,19.76
2023-05-10T00:20:41.662Z,19.77
2023-05-10T00:21:13.107Z,19.77
2023-05-10T00:21:44.521Z,19.77
2023-05-10T00:22:15.936Z,19.77
2023-05-10T00:22:47.331Z,19.75
2023-05-10T00:23:18.747Z,19.76
2023-05-10T00:23:50.168Z,19.74
2023-05-10T00:24:21.597Z,19.75
2023-05-10T00:24:53.002Z,19.74
2023-05-10T00:25:24.390Z,19.75
2023-05-10T00:25:55.796Z,19.73
2023-05-10T00:26:27.202Z,19.72
2023-05-10T00:26:58.601Z,19.72
2023-05-10T00:27:30.026Z,19.73
2023-05-10T00:28:01.448Z,19.74
2023-05-10T00:28:32.849Z,19.72
2023-05-10T00:29:04.252Z,19.73
2023-05-10T00:29:35.685Z,19.73
2023-05-10T00:30:07.133Z,19.73
2023-05-10T00:30:38.545Z,19.72
2023-05-10T00:31:09.982Z,19.72
2023-05-10T00:31:41.404Z,19.71
2023-05-10T00:32:12.919Z,19.70
2023-05-10T00:32:44.502Z,19.70
2023-05-10T00:33:16.019Z,19.70
2023-05-10T00:33:47.409Z,19.70
2023-05-10T00:34:18.810Z,19.70
2023-05-10T00:34:50.258Z,19.70
2023-05-10T00:35:21.658Z,19.70
2023-05-10T00:35:53.056Z,19.69
2023-05-10T00:36:24.497Z,19.69
2023-05-10T00:36:55.919Z,19.69
2023-05-10T00:37:27.311Z,19.69
2023-05-10T00:37:58.718Z,19.68
2023-05-10T00:38:30.136Z,19.67
2023-05-10T00:39:01.532Z,19.68
2023-05-10T00:39:32.928Z,19.67
2023-05-10T00:40:04.325Z,19.67
2023-05-10T00:40:35.737Z,19.66
2023-05-10T00:41:07.143Z,19.67
2023-05-10T00:41:38.748Z,19.67
2023-05-10T00:42:10.204Z,19.65
2023-05-10T00:42:41.610Z,19.65
2023-05-10T00:43:13.007Z,19.64
2023-05-10T00:43:44.399Z,19.64
2023-05-10T00:44:15.852Z,19.64
2023-05-10T00:44:47.270Z,19.64
2023-05-10T00:45:18.698Z,19.62
2023-05-10T00:45:50.171Z,19.63
2023-05-10T00:46:21.669Z,19.63
2023-05-10T00:46:53.143Z,19.63
2023-05-10T00:47:24.593Z,19.63
2023-05-10T00:47:56.193Z,19.64
2023-05-10T00:48:27.745Z,19.64
2023-05-10T00:48:59.174Z,19.64
2023-05-10T00:49:30.568Z,19.63
2023-05-10T00:50:01.953Z,19.62
2023-05-10T00:50:33.378Z,19.62
2023-05-10T00:51:04.803Z,19.63
2023-05-10T00:51:36.225Z,19.62
2023-05-10T00:52:07.673Z,19.62
2023-05-10T00:52:39.073Z,19.62
2023-05-10T00:53:10.467Z,19.62
2023-05-10T00:53:41.862Z,19.60
2023-05-10T00:54:13.291Z,19.60
2023-05-10T00:54:44.715Z,19.60
2023-05-10T00:55:16.119Z,19.61
2023-05-10T00:55:47.535Z,19.61
2023-05-10T00:56:18.957Z,19.62
2023-05-10T00:56:50.408Z,19.62
2023-05-10T00:57:21.816Z,19.60
2023-05-10T00:57:53.223Z,19.59
2023-05-10T00:58:24.659Z,19.59
2023-05-10T00:58:56.067Z,19.59
2023-05-10T00:59:27.492Z,19.59
2023-05-10T00:59:58.900Z,19.58
2023-05-10T01:00:30.303Z,19.58
2023-05-10T01:01:01.798Z,19.57
2023-05-10T01:01:33.263Z,19.57
2023-05-10T01:02:04.776Z,19.58
2023-05-10T01:02:36.260Z,19.57
2023-05-10T01:03:07.891Z,19.57
2023-05-10T01:03:39.512Z,19.59
2023-05-10T01:04:10.966Z,19.58
2023-05-10T01:04:42.398Z,19.56
2023-05-10T01:05:13.920Z,19.57
2023-05-10T01:05:45.328Z,19.56
2023-05-10T01:06:16.769Z,19.56
2023-05-10T01:06:48.181Z,19.56
2023-05-10T01:07:19.623Z,19.55
2023-05-10T01:07:51.009Z,19.55
2023-05-10T01:08:22.408Z,19.54
2023-05-10T01:08:53.821Z,19.55
2023-05-10T01:09:25.218Z,19.55
2023-05-10T01:09:56.629Z,19.54
2023-05-10T01:10:28.042Z,19.55
2023-05-10T01:10:59.438Z,19.54
2023-05-10T01:11:30.859Z,19.54
2023-05-10T01:12:02.297Z,19.52
2023-05-10T01:12:33.840Z,19.53
2023-05-10T01:13:05.346Z,19.54
2023-05-10T01:13:36.810Z,19.52
2023-05-10T01:14:08.222Z,19.52
2023-05-10T01:14:39.609Z,19.53
2023-05-10T01:15:11.024Z,19.53
2023-05-10T01:15:42.499Z,19.53
2023-05-10T01:16:14.002Z,19.52
2023-05-10T01:16:45.414Z,19.53
2023-05-10T01:17:16.838Z,19.53
2023-05-10T01:17:48.307Z,19.51
2023-05-10T01:18:19.742Z,19.51
2023-05-10T01:18:51.135Z,19.51
2023-05-10T01:19:22.548Z,19.51
2023-05-10T01:19:53.964Z,19.48
2023-05-10T01:20:25.396Z,19.50
2023-05-10T01:20:56.839Z,19.49
2023-05-10T01:21:28.241Z,19.49
2023-05-10T01:21:59.657Z,19.49
2023-05-10T01:22:31.061Z,19.49
2023-05-10T01:23:02.460Z,19.50
2023-05-10T01:23:33.888Z,19.48
2023-05-10T01:24:05.316Z,19.47
2023-05-10T01:24:36.719Z,19.46
2023-05-10T01:25:08.136Z,19.47
2023-05-10T01:25:39.536Z,19.47
2023-05-10T01:26:11.034Z,19.47
2023-05-10T01:26:42.454Z,19.48
2023-05-10T01:27:13.874Z,19.47
2023-05-10T01:27:45.308Z,19.47
2023-05-10T01:28:16.714Z,19.47
2023-05-10T01:28:48.146Z,19.47
2023-05-10T01:29:19.567Z,19.46
2023-05-10T01:30:01.420Z,19.46
2023-05-10T01:30:40.879Z,19.44
2023-05-10T01:31:12.333Z,19.44
2023-05-10T01:31:43.902Z,19.45
2023-05-10T01:32:15.442Z,19.45
2023-05-10T01:32:46.903Z,19.45
2023-05-10T01:33:18.372Z,19.43
2023-05-10T01:33:49.780Z,19.45
2023-05-10T01:34:21.188Z,19.43
2023-05-10T01:34:52.606Z,19.44
2023-05-10T01:35:24.020Z,19.44
2023-05-10T01:35:55.470Z,19.44
2023-05-10T01:36:26.902Z,19.41
2023-05-10T01:36:58.339Z,19.42
2023-05-10T01:37:29.746Z,19.42
2023-05-10T01:38:01.168Z,19.42
2023-05-10T01:38:32.565Z,19.42
2023-05-10T01:39:03.964Z,19.42
2023-05-10T01:39:35.378Z,19.41
2023-05-10T01:40:06.787Z,19.41
2023-05-10T01:40:38.194Z,19.40
2023-05-10T01:41:09.602Z,19.41
2023-05-10T01:41:41.020Z,19.41
2023-05-10T01:42:12.471Z,19.40
2023-05-10T01:42:43.872Z,19.40
2023-05-10T01:43:15.288Z,19.39
2023-05-10T01:43:46.678Z,19.40
2023-05-10T01:44:18.077Z,19.39
2023-05-10T01:44:49.506Z,19.37
2023-05-10T01:45:20.912Z,19.39
2023-05-10T01:45:52.321Z,19.39
2023-05-10T01:46:23.791Z,19.38
2023-05-10T01:46:55.372Z,19.38
2023-05-10T01:47:26.889Z,19.38
2023-05-10T01:47:58.327Z,19.37
2023-05-10T01:48:29.826Z,19.37
2023-05-10T01:49:01.330Z,19.38
2023-05-10T01:49:32.729Z,19.38
2023-05-10T01:50:04.136Z,19.38
2023-05-10T01:50:35.561Z,19.36
2023-05-10T01:51:06.984Z,19.36
2023-05-10T01:51:38.386Z,19.36
2023-05-10T01:52:09.792Z,19.37
2023-05-10T01:52:41.212Z,19.35
2023-05-10T01:53:12.629Z,19.36
2023-05-10T01:53:44.061Z,19.34
2023-05-10T01:54:15.458Z,19.34
2023-05-10T01:54:46.867Z,19.36
2023-05-10T01:55:18.276Z,19.35
2023-05-10T01:55:49.684Z,19.35
2023-05-10T01:56:21.096Z,19.34
2023-05-10T01:56:52.499Z,19.33
2023-05-10T01:57:23.889Z,19.33
2023-05-10T01:57:55.310Z,19.33
2023-05-10T01:58:26.718Z,19.34
2023-05-10T01:58:58.171Z,19.32
2023-05-10T01:59:29.635Z,19.32
2023-05-10T02:00:01.094Z,19.34
2023-05-10T02:00:32.558Z,19.33
2023-05-10T02:01:03.993Z,19.32
2023-05-10T02:01:35.427Z,19.31
2023-05-10T02:02:06.829Z,19.32
2023-05-10T02:02:38.260Z,19.31
2023-05-10T02:03:09.786Z,19.31
2023-05-10T02:03:41.320Z,19.31
2023-05-10T02:04:12.796Z,19.30
2023-05-10T02:04:44.369Z,19.29
2023-05-10T02:05:15.762Z,19.29
2023-05-10T02:05:47.175Z,19.29
2023-05-10T02:06:18.566Z,19.28
2023-05-10T02:06:49.979Z,19.29
2023-05-10T02:07:21.393Z,19.29
2023-05-10T02:07:52.790Z,19.29
2023-05-10T02:08:24.211Z,19.28
2023-05-10T02:08:55.613Z,19.30
2023-05-10T02:09:27.031Z,19.29
2023-05-10T02:09:58.453Z,19.29
2023-05-10T02:10:29.925Z,19.28
2023-05-10T02:11:01.341Z,19.27
2023-05-10T02:11:32.746Z,19.27
2023-05-10T02:12:04.152Z,19.28
2023-05-10T02:12:35.566Z,19.28
2023-05-10T02:13:07.002Z,19.28
2023-05-10T02:13:38.445Z,19.26
2023-05-10T02:14:09.848Z,19.26
2023-05-10T02:14:41.247Z,19.26
2023-05-10T02:15:12.638Z,19.27
2023-05-10T02:15:44.061Z,19.26
2023-05-10T02:16:15.481Z,19.26
2023-05-10T02:16:46.959Z,19.26
2023-05-10T02:17:18.402Z,19.26
2023-05-10T02:17:49.904Z,19.25
2023-05-10T02:18:21.341Z,19.25
2023-05-10T02:18:52.733Z,19.25
2023-05-10T02:19:24.147Z,19.24
2023-05-10T02:19:55.620Z,19.24
2023-05-10T02:20:27.087Z,19.24
2023-05-10T02:20:58.493Z,19.23
2023-05-10T02:21:29.921Z,19.24
2023-05-10T02:22:01.318Z,19.23
2023-05-10T02:22:32.727Z,19.24
2023-05-10T02:23:04.149Z,19.23
2023-05-10T02:23:35.576Z,19.23
2023-05-10T02:24:06.999Z,19.24
2023-05-10T02:24:38.427Z,19.22
2023-05-10T02:25:09.858Z,19.21
2023-05-10T02:25:41.308Z,19.21
2023-05-10T02:26:12.698Z,19.22
2023-05-10T02:26:44.121Z,19.23
2023-05-10T02:27:15.520Z,19.22
2023-05-10T02:27:46.938Z,19.22
2023-05-10T02:28:18.340Z,19.21
2023-05-10T02:28:49.727Z,19.21
2023-05-10T02:29:21.131Z,19.21
2023-05-10T02:29:52.548Z,19.22
2023-05-10T02:30:23.982Z,19.21
2023-05-10T02:30:55.398Z,19.20
2023-05-10T02:31:26.842Z,19.21
2023-05-10T02:31:58.384Z,19.19
2023-05-10T02:32:29.927Z,19.20
2023-05-10T02:33:01.380Z,19.18
2023-05-10T02:33:32.802Z,19.19
2023-05-10T02:34:04.200Z,19.19
2023-05-10T02:34:35.632Z,19.19
2023-05-10T02:35:07.037Z,19.19
2023-05-10T02:35:38.484Z,19.19
2023-05-10T02:36:09.916Z,19.18
2023-05-10T02:36:41.306Z,19.17
2023-05-10T02:37:12.692Z,19.18
2023-05-10T02:37:44.094Z,19.17
2023-05-10T02:38:15.511Z,19.17
2023-05-10T02:38:46.933Z,19.18
2023-05-10T02:39:18.320Z,19.17
2023-05-10T02:39:49.719Z,19.17
2023-05-10T02:40:21.134Z,19.17
2023-05-10T02:40:52.562Z,19.16
2023-05-10T02:41:23.966Z,19.16
2023-05-10T02:41:55.380Z,19.16
2023-05-10T02:42:26.800Z,19.16
2023-05-10T02:42:58.196Z,19.15
2023-05-10T02:43:29.613Z,19.14
2023-05-10T02:44:01.009Z,19.15
2023-05-10T02:44:32.406Z,19.15
2023-05-10T02:45:03.800Z,19.13
2023-05-10T02:45:35.217Z,19.13
2023-05-10T02:46:06.666Z,19.14
2023-05-10T02:46:38.348Z,19.13
2023-05-10T02:47:09.873Z,19.13
2023-05-10T02:47:41.465Z,19.13
2023-05-10T02:48:12.913Z,19.12
2023-05-10T02:48:44.376Z,19.13
2023-05-10T02:49:15.778Z,19.12
2023-05-10T02:49:47.200Z,19.13
2023-05-10T02:50:18.749Z,19.14
2023-05-10T02:50:50.378Z,19.14
2023-05-10T02:51:21.786Z,19.12
2023-05-10T02:51:53.202Z,19.12
2023-05-10T02:52:24.584Z,19.13
2023-05-10T02:52:55.993Z,19.12
2023-05-10T02:53:27.411Z,19.13
2023-05-10T02:53:58.817Z,19.13
2023-05-10T02:54:30.218Z,19.12
2023-05-10T02:55:01.632Z,19.11
2023-05-10T02:55:33.065Z,19.11
2023-05-10T02:56:04.453Z,19.11
2023-05-10T02:56:35.847Z,19.10
2023-05-10T02:57:07.262Z,19.11
2023-05-10T02:57:38.651Z,19.11
2023-05-10T02:58:10.079Z,19.10
2023-05-10T02:58:41.503Z,19.11
2023-05-10T02:59:12.918Z,19.12
2023-05-10T02:59:44.334Z,19.10
2023-05-10T03:00:15.936Z,19.10
2023-05-10T03:00:47.551Z,19.10
2023-05-10T03:01:18.994Z,19.10
2023-05-10T03:01:50.515Z,19.09
2023-05-10T03:02:22.035Z,19.07
2023-05-10T03:02:53.509Z,19.09
2023-05-10T03:03:24.951Z,19.07
2023-05-10T03:03:56.366Z,19.07
2023-05-10T03:04:27.787Z,19.07
2023-05-10T03:04:59.424Z,19.06
2023-05-10T03:05:30.924Z,19.05
2023-05-10T03:06:02.347Z,19.07
2023-05-10T03:06:33.793Z,19.06
2023-05-10T03:07:05.182Z,19.06
2023-05-10T03:07:36.593Z,19.06
2023-05-10T03:08:07.996Z,19.06
2023-05-10T03:08:39.410Z,19.06
2023-05-10T03:09:10.797Z,19.06
2023-05-10T03:09:42.191Z,19.05
2023-05-10T03:10:13.635Z,19.05
2023-05-10T03:10:45.068Z,19.06
2023-05-10T03:11:16.491Z,19.05
2023-05-10T03:11:47.928Z,19.04
2023-05-10T03:12:19.354Z,19.04
2023-05-10T03:12:50.762Z,19.04
2023-05-10T03:13:22.240Z,19.04
2023-05-10T03:13:53.682Z,19.04
2023-05-10T03:14:25.094Z,19.04
2023-05-10T03:14:56.488Z,19.03
2023-05-10T03:15:27.892Z,19.02
2023-05-10T03:15:59.329Z,19.02
2023-05-10T03:16:30.800Z,19.02
2023-05-10T03:17:02.232Z,19.02
2023-05-10T03:17:33.685Z,19.01
2023-05-10T03:18:05.130Z,19.01
2023-05-10T03:18:36.602Z,19.02
2023-05-10T03:19:08.003Z,19.01
2023-05-10T03:19:39.394Z,19.01
2023-05-10T03:20:10.833Z,19.01
2023-05-10T03:20:42.267Z,19.00
2023-05-10T03:21:13.675Z,19.01
2023-05-10T03:21:45.084Z,19.01
2023-05-10T03:22:16.621Z,19.00
2023-05-10T03:22:48.045Z,19.00
2023-05-10T03:23:19.473Z,18.99
2023-05-10T03:23:50.878Z,18.99
2023-05-10T03:24:22.286Z,18.99
2023-05-10T03:24:53.710Z,18.99
2023-05-10T03:25:25.117Z,19.00
2023-05-10T03:25:56.532Z,18.98
2023-05-10T03:26:27.968Z,18.99
2023-05-10T03:26:59.378Z,18.98
2023-05-10T03:27:30.786Z,18.97
2023-05-10T03:28:02.197Z,18.98
2023-05-10T03:28:33.611Z,18.98
2023-05-10T03:29:05.001Z,18.99
2023-05-10T03:29:36.406Z,18.97
2023-05-10T03:30:07.846Z,18.99
2023-05-10T03:30:39.271Z,18.98
2023-05-10T03:31:10.679Z,18.96
2023-05-10T03:31:42.118Z,18.96
2023-05-10T03:32:13.557Z,18.96
2023-05-10T03:32:45.022Z,18.97
2023-05-10T03:33:16.448Z,18.96
2023-05-10T03:33:47.839Z,18.97
2023-05-10T03:34:19.477Z,18.96
2023-05-10T03:34:50.881Z,18.96
2023-05-10T03:35:22.360Z,18.96
2023-05-10T03:35:53.772Z,18.95
2023-05-10T03:36:25.175Z,18.96
2023-05-10T03:36:56.677Z,18.93
2023-05-10T03:37:28.093Z,18.95
2023-05-10T03:37:59.508Z,18.95
2023-05-10T03:38:30.915Z,18.94
2023-05-10T03:39:02.305Z,18.93
2023-05-10T03:39:33.718Z,18.94
2023-05-10T03:40:05.169Z,18.94
2023-05-10T03:40:36.589Z,18.93
2023-05-10T03:41:07.996Z,18.94
2023-05-10T03:41:39.402Z,18.93
2023-05-10T03:42:10.851Z,18.93
2023-05-10T03:42:42.259Z,18.92
2023-05-10T03:43:13.682Z,18.92
2023-05-10T03:43:45.095Z,18.91
2023-05-10T03:44:16.542Z,18.92
2023-05-10T03:44:48.018Z,18.91
2023-05-10T03:45:19.463Z,18.91
2023-05-10T03:45:50.895Z,18.91
2023-05-10T03:46:22.354Z,18.91
2023-05-10T03:46:53.818Z,18.91
2023-05-10T03:47:25.298Z,18.92
2023-05-10T03:47:56.781Z,18.92
2023-05-10T03:48:28.210Z,18.91
2023-05-10T03:48:59.623Z,18.91
2023-05-10T03:49:31.159Z,18.90
2023-05-10T03:50:02.595Z,18.89
2023-05-10T03:50:34.106Z,18.90
2023-05-10T03:51:05.556Z,18.90
2023-05-10T03:51:36.978Z,18.89
2023-05-10T03:52:08.380Z,18.90
2023-05-10T03:52:39.792Z,18.89
2023-05-10T03:53:11.199Z,18.90
2023-05-10T03:53:42.618Z,18.88
2023-05-10T03:54:14.011Z,18.89
2023-05-10T03:54:45.421Z,18.88
2023-05-10T03:55:16.910Z,18.88
2023-05-10T03:55:48.306Z,18.88
2023-05-10T03:56:19.704Z,18.87
2023-05-10T03:56:51.156Z,18.86
2023-05-10T03:57:22.565Z,18.87
2023-05-10T03:57:53.974Z,18.86
2023-05-10T03:58:25.379Z,18.86
2023-05-10T03:58:56.831Z,18.85
2023-05-10T03:59:28.229Z,18.86
2023-05-10T03:59:59.660Z,18.86
2023-05-10T04:00:31.087Z,18.86
2023-05-10T04:01:02.500Z,18.85
2023-05-10T04:01:33.933Z,18.85
2023-05-10T04:02:05.389Z,18.85
2023-05-10T04:02:36.926Z,18.86
2023-05-10T04:03:08.579Z,18.85
2023-05-10T04:03:40.104Z,18.85
2023-05-10T04:04:11.634Z,18.85
2023-05-10T04:04:43.144Z,18.84
2023-05-10T04:05:14.567Z,18.85
2023-05-10T04:05:45.971Z,18.85
2023-05-10T04:06:17.396Z,18.84
2023-05-10T04:06:48.859Z,18.85
2023-05-10T04:07:20.289Z,18.83
2023-05-10T04:07:51.755Z,18.84
2023-05-10T04:08:23.155Z,18.84
2023-05-10T04:08:54.566Z,18.83
2023-05-10T04:09:25.979Z,18.83
2023-05-10T04:09:57.389Z,18.83
2023-05-10T04:10:28.807Z,18.83
2023-05-10T04:11:00.239Z,18.83
2023-05-10T04:11:31.708Z,18.83
2023-05-10T04:12:03.123Z,18.81
2023-05-10T04:12:34.553Z,18.82
2023-05-10T04:13:05.989Z,18.82
2023-05-10T04:13:37.408Z,18.82
2023-05-10T04:14:08.834Z,18.82
2023-05-10T04:14:40.228Z,18.82
2023-05-10T04:15:11.644Z,18.81
2023-05-10T04:15:43.057Z,18.82
2023-05-10T04:16:14.501Z,18.81
2023-05-10T04:16:46.039Z,18.81
2023-05-10T04:17:17.504Z,18.81
2023-05-10T04:17:48.990Z,18.79
2023-05-10T04:18:20.414Z,18.79
2023-05-10T04:18:51.833Z,18.80
2023-05-10T04:19:23.230Z,18.79
2023-05-10T04:19:54.649Z,18.81
2023-05-10T04:20:26.049Z,18.79
2023-05-10T04:20:57.466Z,18.80
2023-05-10T04:21:28.883Z,18.81
2023-05-10T04:22:00.362Z,18.80
2023-05-10T04:22:31.767Z,18.81
2023-05-10T04:23:03.164Z,18.81
2023-05-10T04:23:34.580Z,18.81
2023-05-10T04:24:06.044Z,18.80
2023-05-10T04:24:37.504Z,18.78
2023-05-10T04:25:09.135Z,18.81
2023-05-10T04:25:40.542Z,18.80
2023-05-10T04:26:11.971Z,18.81
2023-05-10T04:26:43.359Z,18.80
2023-05-10T04:27:14.777Z,18.79
2023-05-10T04:27:46.170Z,18.79
2023-05-10T04:28:17.569Z,18.79
2023-05-10T04:28:48.973Z,18.78
2023-05-10T04:29:20.454Z,18.77
2023-05-10T04:29:51.906Z,18.77
2023-05-10T04:30:23.318Z,18.78
2023-05-10T04:30:54.789Z,18.77
2023-05-10T04:31:26.227Z,18.77
2023-05-10T04:31:57.671Z,18.78
2023-05-10T04:32:29.114Z,18.78
2023-05-10T04:33:00.615Z,18.76
2023-05-10T04:33:32.038Z,18.77
2023-05-10T04:34:03.429Z,18.75
2023-05-10T04:34:34.856Z,18.76
2023-05-10T04:35:06.283Z,18.77
2023-05-10T04:35:37.682Z,18.75
2023-05-10T04:36:09.141Z,18.76
2023-05-10T04:36:40.579Z,18.76
2023-05-10T04:37:12.011Z,18.76
2023-05-10T04:37:43.420Z,18.76
2023-05-10T04:38:14.826Z,18.77
2023-05-10T04:38:46.218Z,18.77
2023-05-10T04:39:17.634Z,18.76
2023-05-10T04:39:49.031Z,18.77
2023-05-10T04:40:20.443Z,18.77
2023-05-10T04:40:51.874Z,18.76
2023-05-10T04:41:23.336Z,18.77
2023-05-10T04:41:54.753Z,18.77
2023-05-10T04:42:26.148Z,18.77
2023-05-10T04:42:57.579Z,18.76
2023-05-10T04:43:28.995Z,18.76
2023-05-10T04:44:00.397Z,18.78
2023-05-10T04:44:31.826Z,18.77
2023-05-10T04:45:03.234Z,18.77
2023-05-10T04:45:34.649Z,18.78
2023-05-10T04:46:06.139Z,18.78
2023-05-10T04:46:37.722Z,18.78
2023-05-10T04:47:12.503Z,18.79
2023-05-10T04:47:44.158Z,18.79
2023-05-10T04:48:15.566Z,18.79
2023-05-10T04:48:47.023Z,18.79
2023-05-10T04:49:18.433Z,18.80
2023-05-10T04:49:49.818Z,18.81
2023-05-10T04:50:21.233Z,18.81
2023-05-10T04:50:52.669Z,18.81
2023-05-10T04:51:24.100Z,18.81
2023-05-10T04:51:55.515Z,18.81
2023-05-10T04:52:26.923Z,18.82
2023-05-10T04:52:58.319Z,18.82
2023-05-10T04:53:29.749Z,18.83
2023-05-10T04:54:06.645Z,18.83
2023-05-10T04:54:38.406Z,18.82
2023-05-10T04:55:09.809Z,18.83
2023-05-10T04:55:41.227Z,18.83
2023-05-10T04:56:12.633Z,18.84
2023-05-10T04:56:44.051Z,18.84
2023-05-10T04:57:15.455Z,18.84
2023-05-10T04:57:46.870Z,18.85
2023-05-10T04:58:18.278Z,18.85
2023-05-10T04:58:49.687Z,18.84
2023-05-10T04:59:21.137Z,18.85
2023-05-10T04:59:52.544Z,18.85
2023-05-10T05:00:23.965Z,18.85
2023-05-10T05:00:55.373Z,18.86
2023-05-10T05:01:26.837Z,18.86
2023-05-10T05:01:58.390Z,18.85
2023-05-10T05:02:29.866Z,18.86
2023-05-10T05:03:01.518Z,18.85
2023-05-10T05:03:33.014Z,18.85
2023-05-10T05:04:04.442Z,18.86
2023-05-10T05:04:35.884Z,18.86
2023-05-10T05:05:07.278Z,18.86
2023-05-10T05:05:39.112Z,18.86
2023-05-10T05:06:10.579Z,18.86
2023-05-10T05:06:41.978Z,18.86
2023-05-10T05:07:13.399Z,18.87
2023-05-10T05:07:44.796Z,18.86
2023-05-10T05:08:16.210Z,18.86
2023-05-10T05:08:47.593Z,18.86
2023-05-10T05:09:18.992Z,18.86
2023-05-10T05:09:50.429Z,18.87
2023-05-10T05:10:21.896Z,18.87
2023-05-10T05:10:53.318Z,18.87
2023-05-10T05:11:24.722Z,18.87
2023-05-10T05:11:56.150Z,18.87
2023-05-10T05:12:27.564Z,18.88
2023-05-10T05:12:59.026Z,18.87
2023-05-10T05:13:30.638Z,18.88
2023-05-10T05:14:02.113Z,18.87
2023-05-10T05:14:33.524Z,18.87
2023-05-10T05:15:05.288Z,18.86
2023-05-10T05:15:37.364Z,18.86
2023-05-10T05:16:08.787Z,18.87
2023-05-10T05:16:40.331Z,18.87
2023-05-10T05:17:11.840Z,18.86
2023-05-10T05:17:43.409Z,18.87
2023-05-10T05:18:14.860Z,18.87
2023-05-10T05:18:46.276Z,18.87
2023-05-10T05:19:17.778Z,18.86
2023-05-10T05:19:49.175Z,18.87
2023-05-10T05:20:20.576Z,18.87
2023-05-10T05:20:51.995Z,18.87
2023-05-10T05:21:23.416Z,18.87
2023-05-10T05:21:54.821Z,18.88
2023-05-10T05:22:26.226Z,18.87
2023-05-10T05:22:57.645Z,18.87
2023-05-10T05:23:29.078Z,18.87
2023-05-10T05:24:00.473Z,18.87
2023-05-10T05:24:32.200Z,18.87
2023-05-10T05:25:03.618Z,18.87
2023-05-10T05:25:35.054Z,18.88
2023-05-10T05:26:06.450Z,18.88
2023-05-10T05:26:37.856Z,18.88
2023-05-10T05:27:09.337Z,18.88
2023-05-10T05:27:40.789Z,18.88
2023-05-10T05:28:12.210Z,18.88
2023-05-10T05:28:43.642Z,18.89
2023-05-10T05:29:15.060Z,18.90
2023-05-10T05:29:46.484Z,18.90
2023-05-10T05:30:18.171Z,18.90
2023-05-10T05:30:49.741Z,18.90
2023-05-10T05:31:21.153Z,18.91
2023-05-10T05:31:54.832Z,18.91
2023-05-10T05:32:27.028Z,18.92
2023-05-10T05:32:58.520Z,18.92
2023-05-10T05:33:29.980Z,18.92
2023-05-10T05:34:01.414Z,18.91
2023-05-10T05:34:32.841Z,18.92
2023-05-10T05:35:04.301Z,18.92
2023-05-10T05:35:35.721Z,18.93
2023-05-10T05:36:07.235Z,18.92
2023-05-10T05:36:38.718Z,18.92
2023-05-10T05:37:10.119Z,18.92
2023-05-10T05:37:41.513Z,18.92
2023-05-10T05:38:12.937Z,18.92
2023-05-10T05:38:44.344Z,18.93
2023-05-10T05:39:15.730Z,18.93
2023-05-10T05:39:47.125Z,18.93
2023-05-10T05:40:18.589Z,18.93
2023-05-10T05:40:49.979Z,18.93
2023-05-10T05:41:21.389Z,18.93
2023-05-10T05:41:52.788Z,18.92
2023-05-10T05:42:24.231Z,18.93
2023-05-10T05:42:55.643Z,18.93
2023-05-10T05:43:27.049Z,18.93
2023-05-10T05:43:58.487Z,18.93
2023-05-10T05:44:30.001Z,18.95
2023-05-10T05:45:01.484Z,18.94
2023-05-10T05:45:32.950Z,18.95
2023-05-10T05:46:04.402Z,18.95
2023-05-10T05:46:35.819Z,18.95
2023-05-10T05:47:07.228Z,18.96
2023-05-10T05:47:38.677Z,18.95
2023-05-10T05:48:10.178Z,18.96
2023-05-10T05:48:41.593Z,18.96
2023-05-10T05:49:13.154Z,18.96
2023-05-10T05:49:44.692Z,18.97
2023-05-10T05:50:19.118Z,18.97
2023-05-10T05:50:51.272Z,18.97
2023-05-10T05:51:24.449Z,18.98
2023-05-10T05:51:57.292Z,18.97
2023-05-10T05:52:30.097Z,18.97
2023-05-10T05:53:02.181Z,18.98
2023-05-10T05:53:33.747Z,18.97
2023-05-10T05:54:05.292Z,18.98
2023-05-10T05:54:37.504Z,18.98
2023-05-10T05:55:09.463Z,18.98
2023-05-10T05:55:52.867Z,18.98
2023-05-10T05:56:26.158Z,18.98
2023-05-10T05:56:59.786Z,18.97
2023-05-10T05:57:35.181Z,18.98
2023-05-10T05:58:07.282Z,18.99
2023-05-10T05:58:40.288Z,18.97
2023-05-10T05:59:13.181Z,18.99
2023-05-10T05:59:44.939Z,19.00
2023-05-10T06:00:18.484Z,19.00
2023-05-10T06:00:51.363Z,19.00
2023-05-10T06:01:25.683Z,19.00
2023-05-10T06:01:58.018Z,19.00
2023-05-10T06:02:29.836Z,19.00
2023-05-10T06:03:01.652Z,19.01
2023-05-10T06:03:34.605Z,19.01
2023-05-10T06:04:07.331Z,19.02
2023-05-10T06:04:39.779Z,19.01
2023-05-10T06:05:13.032Z,19.02
2023-05-10T06:05:45.215Z,19.02
2023-05-10T06:06:18.803Z,19.02
2023-05-10T06:06:50.801Z,19.03
2023-05-10T06:07:23.178Z,19.04
2023-05-10T06:07:55.313Z,19.03
2023-05-10T06:08:26.979Z,19.03
2023-05-10T06:08:59.043Z,19.04
2023-05-10T06:09:30.908Z,19.03
2023-05-10T06:10:04.591Z,19.04
2023-05-10T06:10:38.418Z,19.04
2023-05-10T06:11:10.467Z,19.04
2023-05-10T06:11:42.003Z,19.05
2023-05-10T06:12:13.968Z,19.06
2023-05-10T06:12:50.463Z,19.07
2023-05-10T06:13:25.923Z,19.07
2023-05-10T06:13:59.989Z,19.06
2023-05-10T06:14:34.238Z,19.07
2023-05-10T06:15:07.209Z,19.07
2023-05-10T06:15:39.324Z,19.07
2023-05-10T06:16:12.302Z,19.09
2023-05-10T06:16:44.054Z,19.10
2023-05-10T06:17:16.012Z,19.07
2023-05-10T06:17:47.979Z,19.09
2023-05-10T06:18:20.680Z,19.10
2023-05-10T06:18:52.597Z,19.10
2023-05-10T06:19:24.684Z,19.10
2023-05-10T06:19:56.272Z,19.11
2023-05-10T06:20:27.865Z,19.11
2023-05-10T06:20:59.426Z,19.11
2023-05-10T06:21:30.987Z,19.12
2023-05-10T06:22:03.022Z,19.12
2023-05-10T06:22:34.790Z,19.13
2023-05-10T06:23:06.231Z,19.13
2023-05-10T06:23:37.938Z,19.13
2023-05-10T06:24:09.579Z,19.12
2023-05-10T06:24:41.279Z,19.12
2023-05-10T06:25:12.719Z,19.13
2023-05-10T06:25:44.136Z,19.14
2023-05-10T06:26:15.544Z,19.13
2023-05-10T06:26:46.943Z,19.13
2023-05-10T06:27:18.369Z,19.15
2023-05-10T06:27:53.471Z,19.15
2023-05-10T06:28:25.331Z,19.15
2023-05-10T06:28:56.788Z,19.16
2023-05-10T06:29:28.190Z,19.17
2023-05-10T06:30:11.644Z,19.17
2023-05-10T06:30:44.552Z,19.18
2023-05-10T06:31:16.002Z,19.18
2023-05-10T06:31:47.515Z,19.17
2023-05-10T06:32:19.011Z,19.19
2023-05-10T06:32:50.484Z,19.18
2023-05-10T06:33:21.878Z,19.20
2023-05-10T06:33:55.398Z,19.21
2023-05-10T06:34:28.130Z,19.20
2023-05-10T06:34:59.524Z,19.22
2023-05-10T06:35:30.985Z,19.22
2023-05-10T06:36:02.419Z,19.22
2023-05-10T06:36:33.835Z,19.24
2023-05-10T06:37:05.229Z,19.21
2023-05-10T06:37:36.656Z,19.23
2023-05-10T06:38:08.066Z,19.24
2023-05-10T06:38:39.474Z,19.24
2023-05-10T06:39:10.940Z,19.23
2023-05-10T06:39:42.359Z,19.24
2023-05-10T06:40:13.776Z,19.25
2023-05-10T06:40:45.218Z,19.24
2023-05-10T06:41:16.623Z,19.24
2023-05-10T06:41:48.034Z,19.25
2023-05-10T06:42:19.464Z,19.25
2023-05-10T06:42:50.863Z,19.26
2023-05-10T06:43:22.273Z,19.26
2023-05-10T06:43:53.679Z,19.26
2023-05-10T06:44:25.084Z,19.26
2023-05-10T06:44:56.524Z,19.26
2023-05-10T06:45:28.006Z,19.27
2023-05-10T06:45:59.523Z,19.28
2023-05-10T06:46:30.968Z,19.28
2023-05-10T06:47:02.482Z,19.29